createdAt,value
2023-03-19T00:05:13.677Z,5.00
2023-03-19T00:16:13.618Z,5.40
2023-03-19T00:27:13.452Z,6.90
2023-03-19T00:38:13.327Z,5.50
2023-03-19T00:49:13.190Z,5.60
2023-03-19T01:00:13.069Z,6.00
2023-03-19T01:11:12.937Z,5.40
2023-03-19T01:22:12.843Z,6.80
2023-03-19T01:33:12.803Z,5.70
2023-03-19T01:44:12.563Z,5.40
2023-03-19T01:55:12.451Z,6.10
2023-03-19T02:06:12.342Z,5.30
2023-03-19T02:17:12.196Z,5.10
2023-03-19T02:28:12.116Z,5.70
2023-03-19T02:39:11.958Z,5.00
2023-03-19T02:50:11.837Z,6.00
2023-03-19T03:01:11.745Z,4.70
2023-03-19T03:12:11.586Z,4.20
2023-03-19T03:23:11.475Z,6.60
2023-03-19T03:34:11.376Z,5.70
2023-03-19T03:45:11.270Z,5.10
2023-03-19T03:56:11.094Z,4.50
2023-03-19T04:07:10.971Z,4.10
2023-03-19T04:18:10.852Z,6.10
2023-03-19T04:29:10.722Z,5.20
2023-03-19T04:40:10.643Z,5.40
2023-03-19T04:51:10.471Z,5.20
2023-03-19T05:02:10.345Z,4.60
2023-03-19T05:13:10.245Z,5.00
2023-03-19T05:24:10.100Z,5.00
2023-03-19T05:35:09.985Z,5.40
2023-03-19T05:46:09.923Z,4.30
2023-03-19T05:57:09.727Z,4.80
2023-03-19T06:08:09.604Z,3.90
2023-03-19T06:19:09.482Z,3.90
2023-03-19T06:30:09.365Z,4.10
2023-03-19T06:41:09.235Z,5.30
2023-03-19T06:52:09.137Z,5.40
2023-03-19T07:03:08.999Z,5.60
2023-03-19T07:14:08.872Z,4.30
2023-03-19T07:25:08.744Z,5.50
2023-03-19T07:36:08.649Z,5.30
2023-03-19T07:47:22.376Z,4.60
2023-03-19T07:58:08.437Z,5.00
2023-03-19T08:09:08.251Z,4.10
2023-03-19T08:20:08.128Z,4.10
2023-03-19T08:31:08.085Z,4.30
2023-03-19T08:42:07.887Z,4.70
2023-03-19T08:53:07.763Z,3.50
2023-03-19T09:04:07.631Z,3.60
2023-03-19T09:15:07.557Z,3.40
2023-03-19T09:26:07.420Z,3.40
2023-03-19T09:37:07.275Z,2.90
2023-03-19T09:48:07.143Z,2.60
2023-03-19T09:59:07.036Z,2.40
2023-03-19T10:10:06.921Z,2.20
2023-03-19T10:21:06.780Z,2.50
2023-03-19T10:32:06.673Z,2.50
2023-03-19T10:43:06.547Z,3.00
2023-03-19T10:54:06.434Z,2.10
2023-03-19T11:05:06.293Z,2.40
2023-03-19T11:16:06.159Z,2.00
2023-03-19T11:27:06.069Z,2.00
2023-03-19T11:38:06.097Z,2.60
2023-03-19T11:49:05.800Z,2.70
2023-03-19T12:00:05.727Z,5.40
2023-03-19T12:11:05.591Z,2.20
2023-03-19T12:22:05.450Z,2.20
2023-03-19T12:33:05.428Z,2.60
2023-03-19T12:44:05.195Z,3.10
2023-03-19T12:55:05.064Z,3.50
2023-03-19T13:06:04.942Z,2.10
2023-03-19T13:17:04.821Z,2.80
2023-03-19T13:28:04.693Z,1.60
2023-03-19T13:39:04.572Z,1.80
2023-03-19T13:50:04.484Z,1.80
2023-03-19T14:01:04.383Z,2.20
2023-03-19T14:12:04.225Z,2.60
2023-03-19T14:23:04.089Z,1.90
2023-03-19T14:34:03.948Z,2.40
2023-03-19T14:45:03.849Z,3.10
2023-03-19T14:56:03.709Z,2.30
2023-03-19T15:07:03.575Z,1.60
2023-03-19T15:18:04.570Z,3.10
2023-03-19T15:29:04.451Z,1.90
2023-03-19T15:40:03.210Z,1.60
2023-03-19T15:51:03.097Z,2.10
2023-03-19T16:02:02.968Z,2.60
2023-03-19T16:13:02.841Z,2.60
2023-03-19T16:24:02.751Z,4.50
2023-03-19T16:35:02.595Z,1.80
2023-03-19T16:46:02.496Z,2.60
2023-03-19T16:57:02.346Z,1.90
2023-03-19T17:08:02.231Z,2.90
2023-03-19T17:19:02.091Z,2.70
2023-03-19T17:30:02.067Z,2.60
2023-03-19T17:41:01.861Z,1.50
2023-03-19T17:52:01.738Z,1.60
2023-03-19T18:03:01.635Z,1.40
2023-03-19T18:14:01.488Z,1.70
2023-03-19T18:25:01.373Z,1.20
2023-03-19T18:36:01.275Z,1.50
2023-03-19T18:47:01.121Z,1.80
2023-03-19T18:58:01.016Z,1.40
2023-03-19T19:09:00.881Z,1.50
2023-03-19T19:20:00.748Z,1.50
2023-03-19T19:31:00.753Z,1.80
2023-03-19T19:42:00.504Z,1.90
2023-03-19T19:53:00.404Z,1.70
2023-03-19T20:04:00.351Z,2.00
2023-03-19T20:15:00.143Z,2.30
2023-03-19T20:26:00.007Z,2.20
2023-03-19T20:36:59.887Z,2.00
2023-03-19T20:47:59.757Z,2.30
2023-03-19T20:58:59.640Z,2.70
2023-03-19T21:09:59.505Z,2.60
2023-03-19T21:20:59.380Z,3.10
2023-03-19T21:31:59.267Z,2.20
2023-03-19T21:42:59.164Z,3.00
2023-03-19T21:53:59.047Z,2.80
2023-03-19T22:04:58.901Z,2.90
2023-03-19T22:15:58.785Z,3.50
2023-03-19T22:26:58.651Z,3.50
2023-03-19T22:37:58.531Z,3.20
2023-03-19T22:48:58.418Z,2.50
2023-03-19T22:59:58.322Z,4.10
2023-03-19T23:10:58.161Z,3.10
2023-03-19T23:21:58.043Z,3.30
2023-03-19T23:32:57.991Z,4.50
2023-03-19T23:43:57.804Z,4.00
2023-03-19T23:54:57.828Z,3.70
